createdAt,value
2023-03-29T00:02:58.450Z,26.3
2023-03-29T00:08:35.234Z,25.3
2023-03-29T00:14:26.685Z,24.6
2023-03-29T00:20:18.697Z,24.2
2023-03-29T00:26:10.303Z,23.6
2023-03-29T00:31:47.095Z,23.4
2023-03-29T00:37:39.072Z,27.4
2023-03-29T00:43:00.333Z,29.8
2023-03-29T00:48:21.275Z,28.1
2023-03-29T00:53:57.234Z,27.1
2023-03-29T00:59:33.775Z,25.4
2023-03-29T01:05:10.967Z,25.1
2023-03-29T01:10:31.452Z,24.2
2023-03-29T01:16:07.263Z,24
2023-03-29T01:21:59.207Z,23.4
2023-03-29T01:27:50.178Z,23.4
2023-03-29T01:33:41.861Z,28.2
2023-03-29T01:39:33.956Z,30.1
2023-03-29T01:44:54.180Z,27.6
2023-03-29T01:50:30.620Z,26.9
2023-03-29T01:56:22.904Z,25.3
2023-03-29T02:01:59.075Z,24.6
2023-03-29T02:07:51.554Z,24.1
2023-03-29T02:13:43.610Z,23.6
2023-03-29T02:19:19.775Z,23.3
2023-03-29T02:24:56.391Z,26.3
2023-03-29T02:30:48.000Z,27.1
2023-03-29T02:36:25.003Z,27.4
2023-03-29T02:42:00.786Z,29.7
2023-03-29T02:47:24.089Z,27.9
2023-03-29T02:53:16.045Z,27
2023-03-29T02:59:07.977Z,25.3
2023-03-29T03:04:44.995Z,24.8
2023-03-29T03:10:35.522Z,24
2023-03-29T03:16:27.263Z,23.6
2023-03-29T03:22:07.824Z,23.3
2023-03-29T03:27:43.785Z,26.4
2023-03-29T03:33:35.673Z,29.1
2023-03-29T03:39:12.693Z,30.5
2023-03-29T03:44:36.879Z,27.4
2023-03-29T03:50:13.578Z,26.3
2023-03-29T03:55:49.976Z,25.1
2023-03-29T04:01:26.410Z,24.4
2023-03-29T04:07:19.524Z,23.9
2023-03-29T04:12:56.142Z,23.4
2023-03-29T04:18:49.224Z,23.2
2023-03-29T04:24:41.770Z,27.4
2023-03-29T04:30:33.641Z,29.6
2023-03-29T04:36:28.221Z,29.4
2023-03-29T04:42:05.982Z,27.2
2023-03-29T04:47:42.947Z,25.6
2023-03-29T04:53:34.221Z,25
2023-03-29T04:59:28.182Z,24.3
2023-03-29T05:05:19.821Z,23.9
2023-03-29T05:11:13.929Z,23.3
2023-03-29T05:17:06.139Z,24.4
2023-03-29T05:22:58.348Z,28.4
2023-03-29T05:28:49.038Z,30.2
2023-03-29T05:34:25.051Z,28.2
2023-03-29T05:40:05.380Z,27.2
2023-03-29T05:45:30.142Z,25.4
2023-03-29T05:51:06.756Z,24.9
2023-03-29T05:56:58.988Z,24
2023-03-29T06:02:51.289Z,23.7
2023-03-29T06:08:55.892Z,23.3
2023-03-29T06:14:47.643Z,26.6
2023-03-29T06:20:39.469Z,25
2023-03-29T06:26:31.856Z,28
2023-03-29T06:32:26.399Z,30.1
2023-03-29T06:38:02.880Z,27.6
2023-03-29T06:43:51.723Z,26.3
2023-03-29T06:49:43.451Z,24.6
2023-03-29T06:55:19.131Z,24.1
2023-03-29T07:00:56.207Z,23.7
2023-03-29T07:06:18.072Z,25.1
2023-03-29T07:12:10.229Z,28.6
2023-03-29T07:18:03.781Z,30.3
2023-03-29T07:23:25.017Z,27.2
2023-03-29T07:29:29.940Z,26.1
2023-03-29T07:35:07.064Z,24.5
2023-03-29T07:40:44.037Z,24.1
2023-03-29T07:46:34.852Z,23.6
2023-03-29T07:52:26.340Z,24.8
2023-03-29T07:58:18.393Z,28.8
2023-03-29T08:04:13.776Z,30.6
2023-03-29T08:09:47.782Z,27.6
2023-03-29T08:15:25.589Z,26.4
2023-03-29T08:21:12.622Z,25.3
2023-03-29T08:26:48.973Z,25
2023-03-29T08:32:41.765Z,24.6
2023-03-29T08:38:33.736Z,29.1
2023-03-29T08:44:10.078Z,30.9
2023-03-29T08:54:42.037Z,27.3
2023-03-29T09:00:18.494Z,26.9
2023-03-29T09:05:40.345Z,26.6
2023-03-29T09:11:17.521Z,26.3
2023-03-29T09:16:54.451Z,29
2023-03-29T09:22:31.996Z,30.9
2023-03-29T09:28:20.892Z,27.3
2023-03-29T09:33:26.970Z,26.4
2023-03-29T09:39:03.718Z,26.3
2023-03-29T09:45:03.810Z,28.1
2023-03-29T09:50:52.525Z,30.8
2023-03-29T09:56:30.441Z,27.3
2023-03-29T10:02:07.359Z,26.5
2023-03-29T10:07:44.276Z,26.3
2023-03-29T10:13:23.553Z,27.6
2023-03-29T10:19:10.523Z,30.5
2023-03-29T10:24:35.215Z,27.4
2023-03-29T10:30:13.269Z,26.1
2023-03-29T10:35:49.975Z,25.8
2023-03-29T10:41:25.885Z,28.3
2023-03-29T10:46:47.070Z,31
2023-03-29T10:52:24.086Z,26.9
2023-03-29T10:58:00.325Z,25.9
2023-03-29T11:03:22.466Z,25.7
2023-03-29T11:08:58.362Z,25.5
2023-03-29T11:14:46.825Z,27.4
2023-03-29T11:20:08.351Z,27.9
2023-03-29T11:25:29.746Z,26.4
2023-03-29T11:30:50.688Z,26.1
2023-03-29T11:36:28.044Z,25.8
2023-03-29T11:41:33.364Z,25.6
2023-03-29T11:47:25.428Z,28.7
2023-03-29T11:53:04.140Z,27.6
2023-03-29T11:58:25.285Z,26.8
2023-03-29T12:04:03.917Z,26.5
2023-03-29T12:09:40.869Z,26.3
2023-03-29T12:15:04.002Z,25.9
2023-03-29T12:20:43.438Z,28.1
2023-03-29T12:26:20.266Z,28.3
2023-03-29T12:31:56.817Z,27
2023-03-29T12:37:18.349Z,26.6
2023-03-29T12:43:10.328Z,26.4
2023-03-29T12:49:02.864Z,26.1
2023-03-29T12:54:55.125Z,25.4
2023-03-29T13:00:32.559Z,29.3
2023-03-29T13:06:25.183Z,27.1
2023-03-29T13:12:16.173Z,26.4
2023-03-29T13:18:23.488Z,26.1
2023-03-29T13:24:14.541Z,25.9
2023-03-29T13:30:05.812Z,25.6
2023-03-29T13:35:42.535Z,25.3
2023-03-29T13:41:34.349Z,27.4
2023-03-29T13:47:26.158Z,28.9
2023-03-29T13:53:33.304Z,26.8
2023-03-29T13:59:28.238Z,26.4
2023-03-29T14:05:20.057Z,26.2
2023-03-29T14:11:12.218Z,25.6
2023-03-29T14:17:11.049Z,25.4
2023-03-29T14:23:02.981Z,25.2
2023-03-29T14:28:39.998Z,24.9
2023-03-29T14:34:31.480Z,24.6
2023-03-29T14:40:24.153Z,24.4
2023-03-29T14:46:16.679Z,24.2
2023-03-29T14:52:07.490Z,23.9
2023-03-29T14:57:59.265Z,23.7
2023-03-29T15:03:54.156Z,23.4
2023-03-29T15:09:56.005Z,23.3
2023-03-29T15:15:46.630Z,23.1
2023-03-29T15:22:56.377Z,31.7
2023-03-29T15:28:34.620Z,36.4
2023-03-29T15:34:42.513Z,40
2023-03-29T15:40:46.607Z,42.1
2023-03-29T15:46:38.078Z,38.3
2023-03-29T15:52:29.386Z,38.3
2023-03-29T15:58:33.484Z,39.6
2023-03-29T16:04:25.289Z,38.1
2023-03-29T16:10:02.918Z,37.1
2023-03-29T16:15:55.752Z,36.8
2023-03-29T16:21:47.132Z,36.6
2023-03-29T16:27:22.688Z,36.6
2023-03-29T16:33:00.066Z,36.3
2023-03-29T16:38:52.008Z,40.9
2023-03-29T16:44:43.777Z,42.4
2023-03-29T16:50:05.716Z,41.9
2023-03-29T16:55:41.216Z,41.7
2023-03-29T17:01:35.652Z,42.3
2023-03-29T17:07:28.707Z,42.4
2023-03-29T17:13:21.107Z,42.4
2023-03-29T17:18:57.610Z,42.4
2023-03-29T17:24:49.480Z,39.6
2023-03-29T17:30:40.597Z,39.6
2023-03-29T17:36:32.926Z,37.1
2023-03-29T17:42:25.866Z,36.9
2023-03-29T17:48:21.238Z,38.8
2023-03-29T17:54:12.857Z,40
2023-03-29T18:00:05.555Z,37.8
2023-03-29T18:05:58.250Z,38.6
2023-03-29T18:11:49.520Z,37.5
2023-03-29T18:17:42.313Z,37.9
2023-03-29T18:23:32.693Z,37.1
2023-03-29T18:28:53.362Z,37.1
2023-03-29T18:34:46.092Z,37.8
2023-03-29T18:40:41.521Z,38.2
2023-03-29T18:46:33.325Z,38
2023-03-29T18:52:27.743Z,39.5
2023-03-29T18:58:21.041Z,37.4
2023-03-29T19:04:13.897Z,37.1
2023-03-29T19:09:35.661Z,36.8
2023-03-29T19:15:11.767Z,36.3
2023-03-29T19:21:03.576Z,35.9
2023-03-29T19:26:56.688Z,35.6
2023-03-29T19:32:50.218Z,35.1
2023-03-29T19:38:25.717Z,34.2
2023-03-29T19:44:02.575Z,33.1
2023-03-29T19:50:01.137Z,32.1
2023-03-29T19:55:53.219Z,31.3
2023-03-29T20:01:30.818Z,30.7
2023-03-29T20:07:07.985Z,30.2
2023-03-29T20:13:02.632Z,29.8
2023-03-29T20:19:10.214Z,29.3
2023-03-29T20:24:46.390Z,28.9
2023-03-29T20:30:37.901Z,28.5
2023-03-29T20:36:30.585Z,28.3
2023-03-29T20:42:26.227Z,28
2023-03-29T20:54:10.286Z,27.6
2023-03-29T21:00:01.956Z,27.3
2023-03-29T21:05:38.239Z,25.9
2023-03-29T21:11:32.161Z,25.1
2023-03-29T21:17:27.305Z,25.1
2023-03-29T21:23:02.070Z,25.1
2023-03-29T21:28:54.232Z,25
2023-03-29T21:34:46.581Z,24.9
2023-03-29T21:40:38.350Z,26.7
2023-03-29T21:46:30.396Z,29.9
2023-03-29T21:52:22.520Z,27.3
2023-03-29T21:57:57.609Z,26.8
2023-03-29T22:03:34.832Z,26.7
2023-03-29T22:09:37.815Z,26.5
2023-03-29T22:15:29.159Z,26.3
2023-03-29T22:21:22.063Z,26
2023-03-29T22:27:14.094Z,27.4
2023-03-29T22:33:06.301Z,30.6
2023-03-29T22:38:58.711Z,27.4
2023-03-29T22:44:50.572Z,26.8
2023-03-29T22:50:42.649Z,26.6
2023-03-29T22:56:34.170Z,26.5
2023-03-29T23:02:11.481Z,26.3
2023-03-29T23:07:47.293Z,25.4
2023-03-29T23:13:38.336Z,29.9
2023-03-29T23:19:14.322Z,28.1
2023-03-29T23:25:07.509Z,26.9
2023-03-29T23:30:58.995Z,26.6
2023-03-29T23:36:35.470Z,26.5
2023-03-29T23:42:26.805Z,26.3
2023-03-29T23:48:19.939Z,25.6
2023-03-29T23:54:10.789Z,29.8
